Time;durP1;ratioP1;P1;durP2;ratioP2;P2;SDS_P1;SDS_P2;PMS_P1;PMS_P2;Temp;Humidity;BMP_temperature;BMP_pressure;BME280_temperature;BME280_humidity;BME280_pressure;Samples;Min_cycle;Max_cycle;Signal;HPM_P1;HPM_P2
2022/08/27 00:01:58;;;;;;;16.52;9.02;;;;;;;16.42;73.35;101616.56;5057036;28;20049;-56
2022/08/27 00:04:23;;;;;;;18.10;9.40;;;;;;;16.41;73.30;101620.50;5057649;28;20032;-57
2022/08/27 00:06:49;;;;;;;15.77;9.30;;;;;;;16.37;73.53;101620.31;5057626;28;20131;-58
2022/08/27 00:09:15;;;;;;;16.77;9.43;;;;;;;16.32;73.77;101620.47;5057511;28;20044;-57
2022/08/27 00:11:40;;;;;;;16.60;9.15;;;;;;;16.31;74.41;101618.81;5057589;28;20130;-57
2022/08/27 00:14:06;;;;;;;18.02;9.40;;;;;;;16.25;74.30;101611.75;5057477;28;20029;-57
2022/08/27 00:16:31;;;;;;;18.15;9.80;;;;;;;16.24;74.67;101610.09;5057419;28;20143;-54
2022/08/27 00:18:57;;;;;;;15.98;9.32;;;;;;;16.19;74.77;101608.31;5057722;28;20472;-55
2022/08/27 00:21:23;;;;;;;17.02;9.75;;;;;;;16.10;74.80;101599.09;5040287;28;20065;-56
2022/08/27 00:23:49;;;;;;;16.88;8.90;;;;;;;16.04;75.12;101609.59;5057167;28;20500;-54
2022/08/27 00:26:15;;;;;;;15.40;9.15;;;;;;;15.96;75.42;101607.59;5056986;28;20047;-56
2022/08/27 00:28:41;;;;;;;17.70;9.60;;;;;;;15.93;76.11;101602.66;5057446;28;20439;-56
2022/08/27 00:31:07;;;;;;;17.48;9.90;;;;;;;15.85;76.08;101605.09;5057691;28;20086;-56
2022/08/27 00:33:33;;;;;;;17.70;10.00;;;;;;;15.83;76.37;101601.78;5057554;28;20021;-56
2022/08/27 00:35:59;;;;;;;17.65;10.23;;;;;;;15.82;76.28;101599.31;5039327;28;20029;-56
2022/08/27 00:38:24;;;;;;;16.13;9.93;;;;;;;15.76;76.77;101598.66;5057017;28;20033;-56
2022/08/27 00:40:51;;;;;;;17.20;10.25;;;;;;;15.80;76.91;101596.03;5056895;28;20056;-56
2022/08/27 00:43:24;;;;;;;18.25;10.43;;;;;;;15.80;76.95;101596.88;5057123;28;20115;-56
2022/08/27 00:45:54;;;;;;;17.60;10.20;;;;;;;15.73;77.27;101585.34;5057802;28;20037;-56
2022/08/27 00:48:24;;;;;;;19.42;10.25;;;;;;;15.72;77.32;101592.91;5057151;28;20050;-56
2022/08/27 00:50:53;;;;;;;18.20;10.15;;;;;;;15.66;77.38;101604.50;5057016;28;20029;-57
2022/08/27 00:53:22;;;;;;;20.00;10.50;;;;;;;15.63;78.10;101606.00;5057292;28;20025;-55
2022/08/27 00:56:11;;;;;;;18.10;10.60;;;;;;;15.69;77.86;101610.28;5057351;28;20060;-57
2022/08/27 00:58:42;;;;;;;19.05;11.27;;;;;;;15.65;78.64;101608.44;5057061;28;20051;-58
2022/08/27 01:01:10;;;;;;;19.63;11.00;;;;;;;15.58;79.62;101606.16;5039197;28;20388;-55
2022/08/27 01:03:36;;;;;;;17.08;10.98;;;;;;;15.52;80.30;101613.81;5055501;28;20032;-57
2022/08/27 01:06:04;;;;;;;19.05;11.10;;;;;;;15.50;80.42;101606.91;5053711;28;20064;-53
2022/08/27 01:08:33;;;;;;;18.80;11.13;;;;;;;15.40;80.94;101608.81;5054485;28;20021;-56
2022/08/27 01:10:59;;;;;;;17.98;11.43;;;;;;;15.40;81.46;101608.03;5054158;28;20063;-56
2022/08/27 01:13:30;;;;;;;19.80;11.20;;;;;;;15.38;81.78;101611.13;5053920;28;20033;-55
2022/08/27 01:15:57;;;;;;;21.77;12.45;;;;;;;15.32;81.65;101608.81;5054200;28;20112;-55
2022/08/27 01:18:25;;;;;;;19.73;11.55;;;;;;;15.20;82.59;101598.25;5050197;23;20057;-59
2022/08/27 01:21:04;;;;;;;18.33;11.15;;;;;;;15.26;82.00;101605.31;5033507;28;20038;-59
2022/08/27 01:23:36;;;;;;;19.45;10.80;;;;;;;15.26;82.61;101600.56;5033960;28;20025;-59
2022/08/27 01:26:05;;;;;;;18.52;11.35;;;;;;;15.27;82.31;101601.41;5033334;28;20025;-59
2022/08/27 01:28:31;;;;;;;21.75;12.35;;;;;;;15.28;82.88;101606.66;5032917;28;20171;-58
2022/08/27 01:30:56;;;;;;;19.85;11.80;;;;;;;15.25;82.68;101600.88;5033014;28;20026;-55
2022/08/27 01:33:22;;;;;;;18.80;11.60;;;;;;;15.22;82.81;101601.53;5032525;28;20080;-56
2022/08/27 01:35:49;;;;;;;19.25;11.45;;;;;;;15.20;83.14;101601.03;5032640;28;20021;-56
2022/08/27 01:38:16;;;;;;;19.60;11.40;;;;;;;15.17;83.24;101596.91;5032837;28;20021;-57
2022/08/27 01:40:42;;;;;;;20.08;12.05;;;;;;;15.18;83.61;101601.34;5033539;28;20033;-61
2022/08/27 01:43:08;;;;;;;20.98;11.27;;;;;;;15.12;83.97;101599.84;5032500;28;20040;-57
2022/08/27 01:45:38;;;;;;;20.65;11.57;;;;;;;15.06;84.38;101599.16;5032312;28;20485;-57
2022/08/27 01:48:03;;;;;;;19.25;11.60;;;;;;;15.01;84.59;101599.28;5032956;28;20025;-59
2022/08/27 01:50:34;;;;;;;21.45;12.27;;;;;;;14.98;84.77;101605.50;5033157;28;20429;-57
2022/08/27 01:53:02;;;;;;;21.05;11.80;;;;;;;14.88;84.94;101592.63;5032964;28;20030;-57
2022/08/27 01:55:28;;;;;;;21.13;12.00;;;;;;;14.92;85.41;101595.63;5033109;28;20025;-57
2022/08/27 01:57:54;;;;;;;20.08;11.80;;;;;;;14.88;85.77;101602.97;5032987;28;20028;-58
2022/08/27 02:00:28;;;;;;;19.08;12.00;;;;;;;14.85;86.10;101596.06;5032916;28;20169;-57
2022/08/27 02:02:55;;;;;;;19.20;11.57;;;;;;;14.88;86.33;101594.59;5032484;28;20106;-57
2022/08/27 02:05:20;;;;;;;19.00;11.90;;;;;;;14.90;86.34;101586.75;5032640;28;20121;-57
2022/08/27 02:07:46;;;;;;;22.70;12.27;;;;;;;14.89;85.97;101587.91;5031999;28;20108;-57
2022/08/27 02:10:16;;;;;;;19.83;12.10;;;;;;;14.75;86.42;101574.84;5032061;28;20029;-57
2022/08/27 02:12:41;;;;;;;20.52;12.52;;;;;;;14.85;86.08;101586.88;5032620;28;20026;-55
2022/08/27 02:15:07;;;;;;;22.15;12.65;;;;;;;14.80;86.73;101588.66;5030792;28;20450;-58
2022/08/27 02:17:33;;;;;;;20.98;12.57;;;;;;;14.73;87.05;101593.88;5038168;28;20055;-56
2022/08/27 02:19:59;;;;;;;22.33;12.90;;;;;;;14.69;87.49;101587.25;5052210;28;20055;-57
2022/08/27 02:22:25;;;;;;;20.30;12.30;;;;;;;14.73;87.65;101584.66;5052328;28;20461;-57
2022/08/27 02:24:50;;;;;;;20.08;12.65;;;;;;;14.75;87.25;101587.97;5052067;28;20036;-58
2022/08/27 02:27:17;;;;;;;20.95;12.82;;;;;;;14.72;87.87;101588.59;5051995;28;20025;-57
2022/08/27 02:29:42;;;;;;;20.00;12.85;;;;;;;14.65;87.59;101587.03;5051650;28;20465;-57
2022/08/27 02:32:08;;;;;;;21.73;13.60;;;;;;;14.58;88.16;101583.03;5051866;28;20060;-57
2022/08/27 02:34:33;;;;;;;20.90;13.18;;;;;;;14.49;89.07;101586.59;5052213;28;20029;-58
2022/08/27 02:36:59;;;;;;;22.05;13.48;;;;;;;14.50;89.16;101581.81;5051249;28;20477;-56
2022/08/27 02:39:24;;;;;;;21.65;13.27;;;;;;;14.49;88.80;101581.03;5051450;28;20106;-57
2022/08/27 02:41:49;;;;;;;21.88;13.15;;;;;;;14.45;89.29;101574.41;5051765;28;20048;-56
2022/08/27 02:44:15;;;;;;;20.00;13.10;;;;;;;14.38;89.49;101562.91;5033133;28;20040;-58
2022/08/27 02:46:40;;;;;;;20.25;12.27;;;;;;;14.48;89.83;101578.56;5050947;28;20035;-57
2022/08/27 02:49:06;;;;;;;22.52;13.00;;;;;;;14.41;89.92;101570.63;5051609;28;20499;-58
2022/08/27 02:51:32;;;;;;;20.95;13.35;;;;;;;14.38;90.09;101584.38;5051265;28;20021;-57
2022/08/27 02:53:57;;;;;;;20.63;13.15;;;;;;;14.30;90.17;101570.06;5051201;28;20157;-58
2022/08/27 02:56:23;;;;;;;20.55;13.30;;;;;;;14.39;89.80;101580.44;5051456;28;20174;-57
2022/08/27 02:58:48;;;;;;;21.17;13.55;;;;;;;14.40;90.37;101585.69;5051253;28;20477;-60
2022/08/27 03:01:14;;;;;;;21.77;14.00;;;;;;;14.39;90.43;101586.00;5051282;28;20036;-57
2022/08/27 03:03:40;;;;;;;20.98;13.80;;;;;;;14.38;90.32;101587.16;5051174;28;20456;-56
2022/08/27 03:06:06;;;;;;;21.25;13.70;;;;;;;14.37;90.57;101586.31;5051834;28;20104;-58
2022/08/27 03:08:31;;;;;;;21.63;13.27;;;;;;;14.33;91.06;101579.75;5051773;28;20036;-58
2022/08/27 03:10:56;;;;;;;21.67;14.18;;;;;;;14.34;91.07;101576.63;5050854;28;20025;-56
2022/08/27 03:13:22;;;;;;;20.88;14.15;;;;;;;14.37;91.55;101579.94;5050620;28;20028;-56
2022/08/27 03:15:47;;;;;;;21.98;13.82;;;;;;;14.41;91.58;101583.72;5050911;28;20054;-56
2022/08/27 03:18:20;;;;;;;21.50;13.80;;;;;;;14.42;91.34;101588.16;5050880;28;20126;-59
2022/08/27 03:20:48;;;;;;;21.77;13.35;;;;;;;14.42;91.63;101568.66;5050691;28;20245;-57
2022/08/27 03:23:15;;;;;;;21.25;14.43;;;;;;;14.48;91.26;101579.38;5050943;28;20021;-58
2022/08/27 03:25:52;;;;;;;23.33;14.27;;;;;;;14.48;91.41;101573.81;5050864;28;20029;-59
2022/08/27 03:28:19;;;;;;;20.40;13.85;;;;;;;14.49;91.36;101572.66;5051105;28;20025;-59
2022/08/27 03:30:49;;;;;;;20.15;13.43;;;;;;;14.60;91.76;101578.00;5051745;28;20033;-59
2022/08/27 03:33:14;;;;;;;21.30;13.57;;;;;;;14.61;91.28;101586.03;5051097;28;20032;-59
2022/08/27 03:35:40;;;;;;;21.88;14.38;;;;;;;14.62;91.25;101584.88;5050593;28;20469;-57
2022/08/27 03:38:05;;;;;;;21.63;13.63;;;;;;;14.68;91.49;101584.81;5050987;28;20079;-58
2022/08/27 03:40:31;;;;;;;22.38;13.05;;;;;;;14.70;91.08;101583.34;5051093;28;20056;-57
2022/08/27 03:42:56;;;;;;;21.75;14.10;;;;;;;14.72;90.99;101588.59;5032936;28;20044;-58
2022/08/27 03:45:21;;;;;;;22.20;13.50;;;;;;;14.68;91.08;101582.84;5050696;28;20255;-57
2022/08/27 03:47:46;;;;;;;25.45;13.02;;;;;;;14.73;91.65;101591.06;5050440;28;20119;-58
2022/08/27 03:50:12;;;;;;;21.67;14.02;;;;;;;14.71;91.19;101586.94;5050189;28;20455;-56
2022/08/27 03:52:37;;;;;;;22.80;13.77;;;;;;;14.72;91.09;101594.16;5050618;28;20021;-57
2022/08/27 03:55:06;;;;;;;23.48;13.68;;;;;;;14.67;91.72;101592.31;5051287;28;20021;-58
2022/08/27 03:57:32;;;;;;;21.73;13.05;;;;;;;14.68;91.86;101593.16;5051471;28;20535;-58
2022/08/27 03:59:57;;;;;;;20.70;13.18;;;;;;;14.61;91.70;101588.81;5051428;28;20029;-58
2022/08/27 04:02:23;;;;;;;21.88;12.95;;;;;;;14.65;91.93;101587.03;5050813;28;20091;-57
2022/08/27 04:04:48;;;;;;;20.20;12.70;;;;;;;14.66;91.70;101587.84;5050355;28;20036;-57
2022/08/27 04:07:13;;;;;;;21.17;12.77;;;;;;;14.61;91.90;101588.00;5050744;28;20032;-56
2022/08/27 04:09:39;;;;;;;21.95;12.80;;;;;;;14.59;91.78;101587.47;5050594;28;20039;-57
2022/08/27 04:12:04;;;;;;;19.95;12.63;;;;;;;14.60;91.79;101578.81;5051087;28;20074;-58
2022/08/27 04:14:29;;;;;;;20.45;12.95;;;;;;;14.56;91.97;101582.53;5050557;28;20029;-57
2022/08/27 04:16:55;;;;;;;22.25;12.52;;;;;;;14.48;91.91;101582.16;5050359;28;20031;-58
2022/08/27 04:19:21;;;;;;;22.63;12.27;;;;;;;14.43;92.27;101582.28;5050275;28;20064;-57
2022/08/27 04:21:46;;;;;;;21.05;11.98;;;;;;;14.48;92.66;101579.38;5050921;28;20040;-58
2022/08/27 04:24:11;;;;;;;20.40;12.80;;;;;;;14.48;92.72;101579.38;5050663;28;20029;-59
2022/08/27 04:26:39;;;;;;;21.13;12.65;;;;;;;14.31;92.91;101568.09;5050707;28;20053;-58
2022/08/27 04:29:04;;;;;;;22.10;13.57;;;;;;;14.37;93.22;101586.31;5050748;28;20025;-59
2022/08/27 04:31:30;;;;;;;22.58;12.68;;;;;;;14.33;92.96;101588.91;5050670;28;20435;-58
2022/08/27 04:33:55;;;;;;;19.77;11.85;;;;;;;14.32;93.02;101583.66;5049785;28;20077;-58
2022/08/27 04:36:20;;;;;;;22.35;13.98;;;;;;;14.30;93.31;101580.34;5050701;28;20029;-57
2022/08/27 04:38:46;;;;;;;21.10;13.18;;;;;;;14.25;93.19;101589.66;5050967;28;20120;-58
2022/08/27 04:41:21;;;;;;;21.55;12.50;;;;;;;14.25;93.34;101586.88;5054200;28;20044;-57
2022/08/27 04:43:50;;;;;;;21.02;13.07;;;;;;;14.27;93.62;101594.88;5053968;28;20029;-56
2022/08/27 04:46:27;;;;;;;21.42;12.77;;;;;;;14.19;94.04;101582.56;5054168;28;20029;-57
2022/08/27 04:48:55;;;;;;;23.00;13.02;;;;;;;14.25;93.65;101591.63;5053837;28;20120;-56
2022/08/27 04:51:20;;;;;;;21.98;13.73;;;;;;;14.31;93.83;101593.94;5053340;28;20021;-56
2022/08/27 04:53:46;;;;;;;21.52;13.40;;;;;;;14.33;93.80;101593.66;5053688;28;20492;-57
2022/08/27 04:56:13;;;;;;;20.30;13.23;;;;;;;14.34;93.90;101598.91;5054110;28;20017;-58
2022/08/27 04:58:39;;;;;;;22.25;13.27;;;;;;;14.42;93.71;101602.06;5054319;28;20560;-57
2022/08/27 05:01:06;;;;;;;20.63;13.27;;;;;;;14.44;93.79;101592.28;5054396;28;20095;-58
2022/08/27 05:03:31;;;;;;;19.58;12.10;;;;;;;14.48;93.79;101598.03;5035425;28;20465;-58
2022/08/27 05:06:03;;;;;;;21.23;12.82;;;;;;;14.46;93.77;101594.75;5053826;28;20047;-57
2022/08/27 05:08:29;;;;;;;22.83;14.20;;;;;;;14.45;93.88;101602.25;5035824;28;20051;-57
2022/08/27 05:10:55;;;;;;;19.95;12.55;;;;;;;14.49;93.92;101592.16;5053592;28;20060;-58
2022/08/27 05:13:22;;;;;;;22.77;12.38;;;;;;;14.56;93.63;101596.44;5035723;28;20025;-55
2022/08/27 05:15:48;;;;;;;21.08;12.50;;;;;;;14.65;93.51;101600.97;5053486;28;20087;-55
2022/08/27 05:18:13;;;;;;;22.95;13.13;;;;;;;14.66;92.86;101599.00;5053329;28;20068;-55
2022/08/27 05:20:44;;;;;;;22.45;13.05;;;;;;;14.67;93.13;101600.69;5052827;28;20033;-57
2022/08/27 05:23:11;;;;;;;21.85;13.15;;;;;;;14.68;93.23;101607.09;5053038;28;20077;-57
2022/08/27 05:25:42;;;;;;;20.52;13.68;;;;;;;14.69;93.06;101606.75;5053512;28;20417;-58
2022/08/27 05:28:08;;;;;;;21.33;13.52;;;;;;;14.72;92.85;101608.91;5053256;28;20036;-59
2022/08/27 05:30:43;;;;;;;21.85;13.43;;;;;;;14.71;93.10;101604.50;5053577;28;20025;-59
2022/08/27 05:33:09;;;;;;;22.40;13.40;;;;;;;14.74;92.93;101611.38;5053875;28;20079;-57
2022/08/27 05:35:42;;;;;;;24.13;13.27;;;;;;;14.78;93.29;101612.41;5053054;28;20098;-58
2022/08/27 05:38:08;;;;;;;22.43;13.77;;;;;;;14.74;93.21;101612.19;5053564;28;20029;-60
2022/08/27 05:40:33;;;;;;;23.45;12.85;;;;;;;14.82;93.24;101605.06;5036190;28;20027;-59
2022/08/27 05:42:59;;;;;;;19.52;13.40;;;;;;;14.86;92.84;101605.25;5054315;28;20107;-59
2022/08/27 05:45:25;;;;;;;20.75;12.80;;;;;;;14.90;93.21;101609.84;5054101;28;20055;-59
2022/08/27 05:47:50;;;;;;;23.02;12.88;;;;;;;14.98;92.77;101605.50;5054082;28;20448;-59
2022/08/27 05:50:16;;;;;;;21.58;13.35;;;;;;;15.00;92.12;101611.56;5053481;28;20025;-59
2022/08/27 05:52:42;;;;;;;22.85;12.20;;;;;;;14.99;92.64;101609.94;5053913;28;20104;-59
2022/08/27 05:55:07;;;;;;;20.75;12.65;;;;;;;15.00;92.44;101607.94;5053897;28;20430;-58
2022/08/27 05:57:33;;;;;;;21.05;13.20;;;;;;;15.06;92.68;101613.09;5054017;28;20091;-58
2022/08/27 06:02:42;;;;;;;20.38;13.18;;;;;;;15.19;92.41;101618.91;5053865;28;20040;-59
2022/08/27 06:05:08;;;;;;;22.45;13.70;;;;;;;15.19;92.27;101616.13;5053592;28;20021;-58
2022/08/27 06:07:34;;;;;;;20.38;12.75;;;;;;;15.29;91.75;101615.84;5053590;28;20492;-58
2022/08/27 06:09:59;;;;;;;20.23;12.73;;;;;;;15.36;91.93;101610.63;5053258;28;20477;-59
2022/08/27 06:12:25;;;;;;;21.88;13.07;;;;;;;15.39;91.44;101614.75;5053599;28;20481;-59
2022/08/27 06:14:50;;;;;;;22.98;12.77;;;;;;;15.44;91.32;101620.19;5053445;28;20100;-59
2022/08/27 06:17:16;;;;;;;20.58;12.30;;;;;;;15.54;91.08;101619.06;5053223;28;20492;-59
2022/08/27 06:19:42;;;;;;;21.52;12.82;;;;;;;15.62;90.83;101623.88;5053183;28;20357;-58
2022/08/27 06:22:07;;;;;;;20.85;12.00;;;;;;;15.72;90.35;101615.22;5053363;28;20045;-59
2022/08/27 06:24:33;;;;;;;21.92;13.10;;;;;;;15.78;89.72;101609.47;5052903;28;20108;-59
2022/08/27 06:26:58;;;;;;;20.92;12.75;;;;;;;15.83;89.96;101620.50;5052898;28;20021;-58
2022/08/27 06:29:24;;;;;;;21.15;12.77;;;;;;;15.84;89.52;101614.63;5052958;28;20025;-59
2022/08/27 06:31:51;;;;;;;22.42;12.57;;;;;;;15.86;89.20;101617.91;5052980;28;20559;-58
2022/08/27 06:34:17;;;;;;;21.00;13.00;;;;;;;15.82;90.15;101618.84;5052815;28;20049;-59
2022/08/27 06:36:42;;;;;;;20.77;12.35;;;;;;;15.94;90.09;101612.69;5051238;28;20389;-60
2022/08/27 06:39:12;;;;;;;19.35;11.57;;;;;;;16.06;89.62;101619.25;5052583;28;20421;-59
2022/08/27 06:41:38;;;;;;;19.65;12.02;;;;;;;16.13;88.91;101616.00;5053067;28;20107;-59
2022/08/27 06:44:03;;;;;;;20.15;12.20;;;;;;;16.17;88.50;101617.00;5052811;28;20032;-59
2022/08/27 06:46:29;;;;;;;21.52;12.40;;;;;;;16.14;88.60;101620.44;5051978;28;20025;-58
2022/08/27 06:48:56;;;;;;;20.65;12.43;;;;;;;16.16;88.90;101629.31;5052770;28;20103;-60
2022/08/27 06:51:25;;;;;;;20.00;12.52;;;;;;;16.16;88.41;101615.38;5052649;28;20032;-59
2022/08/27 06:53:52;;;;;;;21.30;12.73;;;;;;;16.22;87.82;101619.63;5051818;28;20064;-59
2022/08/27 06:56:18;;;;;;;23.48;12.18;;;;;;;16.29;86.23;101626.72;5052595;28;20083;-59
2022/08/27 06:58:44;;;;;;;20.63;12.30;;;;;;;16.34;86.32;101624.56;5052776;28;20021;-59
2022/08/27 07:01:18;;;;;;;21.83;11.93;;;;;;;16.36;85.81;101619.47;5051890;28;20478;-59
2022/08/27 07:03:44;;;;;;;20.88;12.52;;;;;;;16.51;85.74;101625.75;5052624;28;20566;-59
2022/08/27 07:06:13;;;;;;;21.63;12.60;;;;;;;16.51;85.58;101611.78;5052685;28;20059;-58
2022/08/27 07:08:39;;;;;;;23.23;13.25;;;;;;;16.63;85.40;101620.31;5052935;28;20032;-58
2022/08/27 07:11:05;;;;;;;19.92;12.25;;;;;;;16.72;85.22;101622.31;5039745;28;20025;-59
2022/08/27 07:13:30;;;;;;;22.23;12.73;;;;;;;16.77;84.01;101622.13;5032310;28;20041;-59
2022/08/27 07:15:56;;;;;;;23.75;13.60;;;;;;;16.82;84.77;101624.75;5032520;28;20067;-59
2022/08/27 07:18:22;;;;;;;21.35;12.32;;;;;;;17.02;83.85;101620.50;5019957;28;20049;-60
2022/08/27 07:20:50;;;;;;;22.10;13.70;;;;;;;17.09;83.72;101623.59;5012898;28;20064;-59
2022/08/27 07:23:15;;;;;;;21.70;13.70;;;;;;;17.20;82.36;101628.84;5012442;28;20390;-56
2022/08/27 07:25:42;;;;;;;22.58;13.95;;;;;;;17.33;82.45;101629.78;5012603;28;20032;-60
2022/08/27 07:28:07;;;;;;;25.30;13.73;;;;;;;17.39;81.06;101631.25;5012532;28;20024;-60
2022/08/27 07:30:32;;;;;;;21.40;12.55;;;;;;;17.47;79.97;101636.00;5012359;28;20026;-59
2022/08/27 07:32:58;;;;;;;19.55;12.50;;;;;;;17.54;78.97;101629.88;5012352;28;20105;-60
2022/08/27 07:35:23;;;;;;;21.15;12.43;;;;;;;17.53;77.16;101642.22;5012339;28;20030;-58
2022/08/27 07:37:49;;;;;;;21.35;12.68;;;;;;;17.51;77.28;101639.75;5012283;28;20408;-60
2022/08/27 07:40:15;;;;;;;22.42;13.68;;;;;;;17.45;76.55;101647.50;4993966;28;20079;-61
2022/08/27 07:45:26;;;;;;;18.60;10.75;;;;;;;17.30;74.98;101636.88;5041819;28;20515;-59
2022/08/27 07:47:52;;;;;;;20.35;10.60;;;;;;;17.24;74.81;101641.81;5051845;28;20033;-59
2022/08/27 07:50:18;;;;;;;19.33;10.85;;;;;;;17.20;74.47;101640.84;5051749;28;20112;-60
2022/08/27 07:52:43;;;;;;;21.60;10.43;;;;;;;17.14;74.21;101642.16;5044417;28;20037;-60
2022/08/27 07:55:13;;;;;;;19.88;11.20;;;;;;;17.12;74.87;101644.47;5010119;28;20087;-59
2022/08/27 07:57:39;;;;;;;18.58;10.90;;;;;;;17.10;75.26;101643.97;5010048;28;20041;-59
2022/08/27 08:00:09;;;;;;;19.45;10.80;;;;;;;17.15;74.52;101653.00;5009930;28;20025;-59
2022/08/27 08:02:35;;;;;;;20.20;10.23;;;;;;;17.32;74.56;101645.75;5009207;28;20064;-59
2022/08/27 08:05:00;;;;;;;19.42;10.90;;;;;;;17.41;73.20;101642.91;5009972;28;20480;-60
2022/08/27 08:07:25;;;;;;;17.08;10.45;;;;;;;17.53;73.48;101651.44;5009746;28;20060;-58
2022/08/27 08:09:50;;;;;;;19.42;10.13;;;;;;;17.66;72.84;101645.97;5007270;28;20077;-60
2022/08/27 08:12:16;;;;;;;18.52;9.98;;;;;;;17.72;70.67;101645.44;5009985;28;20034;-60
2022/08/27 08:14:41;;;;;;;18.80;10.30;;;;;;;17.77;69.77;101641.63;5013379;28;20110;-60
2022/08/27 08:17:06;;;;;;;16.83;9.27;;;;;;;17.88;69.29;101642.09;5015693;28;20029;-60
2022/08/27 08:19:32;;;;;;;19.30;10.15;;;;;;;17.97;69.24;101636.47;5033616;28;20026;-59
2022/08/27 08:21:58;;;;;;;18.85;9.95;;;;;;;18.13;70.32;101631.94;5033515;28;20101;-59
2022/08/27 08:24:24;;;;;;;17.15;9.48;;;;;;;18.28;68.96;101632.50;5037077;28;20477;-60
2022/08/27 08:26:49;;;;;;;17.50;9.55;;;;;;;18.43;67.78;101631.88;5052937;28;20524;-61
2022/08/27 08:29:15;;;;;;;17.55;9.52;;;;;;;18.52;64.62;101638.25;5060715;28;20449;-59
2022/08/27 08:31:41;;;;;;;18.65;8.98;;;;;;;18.62;63.04;101639.00;5061645;28;20025;-60
2022/08/27 08:34:07;;;;;;;16.27;8.90;;;;;;;18.69;62.96;101636.47;5052621;28;20086;-60
2022/08/27 08:36:32;;;;;;;16.30;8.77;;;;;;;18.82;63.03;101635.34;5052299;28;20063;-59
2022/08/27 08:38:58;;;;;;;15.15;8.57;;;;;;;19.00;63.16;101641.66;5052788;28;20091;-60
2022/08/27 08:41:37;;;;;;;16.45;8.80;;;;;;;19.20;61.23;101641.97;5053245;28;20033;-60
2022/08/27 08:44:12;;;;;;;15.25;8.85;;;;;;;19.26;60.14;101634.16;5052663;28;20055;-59
2022/08/27 08:47:02;;;;;;;17.35;8.38;;;;;;;19.46;59.72;101640.84;5052002;28;20041;-60
2022/08/27 08:49:36;;;;;;;14.27;8.23;;;;;;;19.45;59.27;101645.66;5052780;28;20036;-59
2022/08/27 08:52:26;;;;;;;14.68;8.27;;;;;;;19.58;60.52;101637.22;5052530;28;20031;-59
2022/08/27 08:54:58;;;;;;;14.85;8.10;;;;;;;19.55;57.47;101647.16;5052071;28;20041;-59
2022/08/27 08:57:33;;;;;;;14.88;8.10;;;;;;;19.74;58.09;101632.56;5052196;28;20460;-60
2022/08/27 09:00:10;;;;;;;16.67;8.05;;;;;;;19.86;58.07;101645.84;5052312;28;20029;-59
2022/08/27 09:02:36;;;;;;;15.77;8.38;;;;;;;19.94;57.08;101649.69;5052480;28;20045;-60
2022/08/27 09:05:07;;;;;;;17.55;8.45;;;;;;;19.99;57.16;101649.47;5052796;28;20104;-59
2022/08/27 09:07:48;;;;;;;14.75;8.52;;;;;;;20.05;57.54;101639.63;5051849;28;20028;-61
2022/08/27 09:10:25;;;;;;;15.20;8.10;;;;;;;20.37;56.75;101648.25;5051779;28;20075;-59
2022/08/27 09:12:54;;;;;;;14.30;8.07;;;;;;;20.39;53.91;101659.97;5052523;28;20037;-61
2022/08/27 09:15:25;;;;;;;15.10;8.27;;;;;;;20.17;54.73;101666.06;5052110;28;20037;-61
2022/08/27 09:17:50;;;;;;;14.48;8.15;;;;;;;19.98;54.42;101667.47;5052099;28;20047;-59
2022/08/27 09:20:20;;;;;;;16.63;8.00;;;;;;;19.72;55.76;101650.94;5052167;28;20476;-59
2022/08/27 09:23:26;;;;;;;15.48;8.20;;;;;;;19.69;55.90;101674.91;5052154;28;20045;-58
2022/08/27 09:25:52;;;;;;;15.77;8.60;;;;;;;19.56;56.90;101665.66;4970081;28;20066;-61
2022/08/27 09:31:13;;;;;;;16.00;8.20;;;;;;;19.54;56.73;101659.56;5051786;28;20039;-60
2022/08/27 09:33:38;;;;;;;14.63;8.27;;;;;;;19.54;56.59;101648.34;5051853;28;20675;-59
2022/08/27 09:36:08;;;;;;;15.48;8.43;;;;;;;19.53;57.58;101655.13;5051166;28;20198;-60
2022/08/27 09:38:35;;;;;;;17.25;8.50;;;;;;;19.56;57.36;101653.59;5051317;28;20047;-61
2022/08/27 09:41:05;;;;;;;12.98;7.93;;;;;;;19.61;56.98;101657.00;5051670;28;20461;-60
2022/08/27 09:43:31;;;;;;;17.65;8.00;;;;;;;19.62;55.94;101657.84;5051693;28;20029;-60
2022/08/27 09:46:06;;;;;;;16.02;8.20;;;;;;;19.75;55.93;101647.44;5051866;28;20136;-60
2022/08/27 09:48:35;;;;;;;15.38;8.55;;;;;;;19.92;55.07;101650.03;5051512;28;20021;-61
2022/08/27 09:51:05;;;;;;;14.60;8.02;;;;;;;20.06;54.32;101646.06;5051617;28;20096;-60
2022/08/27 09:53:46;;;;;;;12.02;7.97;;;;;;;20.22;54.50;101644.16;5051223;28;20040;-59
2022/08/27 09:56:32;;;;;;;12.55;7.90;;;;;;;20.44;55.65;101647.66;5033196;28;20033;-59
2022/08/27 09:59:11;;;;;;;12.90;7.93;;;;;;;20.60;53.63;101641.28;5051198;28;20029;-59
2022/08/27 10:01:54;;;;;;;12.43;7.57;;;;;;;20.50;52.34;101637.78;5051328;28;20028;-60
2022/08/27 10:04:26;;;;;;;16.23;8.10;;;;;;;20.38;52.38;101643.44;5051015;28;20037;-59
2022/08/27 10:06:51;;;;;;;16.35;7.80;;;;;;;20.50;52.83;101637.78;5051239;28;20071;-61
2022/08/27 10:09:34;;;;;;;15.60;7.60;;;;;;;20.51;54.34;101649.84;5049187;28;20397;-60
2022/08/27 10:12:10;;;;;;;12.13;7.85;;;;;;;20.40;53.69;101647.50;5051152;28;20497;-59
2022/08/27 10:14:39;;;;;;;12.00;7.63;;;;;;;20.26;53.23;101649.91;5051127;28;20072;-60
2022/08/27 10:17:15;;;;;;;13.63;7.63;;;;;;;20.27;53.32;101649.53;5050710;28;20128;-58
2022/08/27 10:20:25;;;;;;;14.68;7.82;;;;;;;20.60;53.60;101642.09;5051286;28;20041;-60
2022/08/27 10:23:13;;;;;;;13.73;7.90;;;;;;;21.01;52.34;101631.66;5046776;28;20055;-59
2022/08/27 10:25:44;;;;;;;14.82;7.78;;;;;;;21.30;51.34;101638.06;5050599;28;20484;-59
2022/08/27 10:28:18;;;;;;;14.25;8.30;;;;;;;21.42;50.95;101641.97;5050665;28;20444;-60
2022/08/27 10:31:01;;;;;;;12.82;7.68;;;;;;;21.36;51.04;101635.81;5050291;28;20029;-59
2022/08/27 10:33:49;;;;;;;12.95;7.95;;;;;;;21.25;51.33;101643.97;5050709;28;20522;-60
2022/08/27 10:36:39;;;;;;;12.65;7.70;;;;;;;21.18;51.76;101653.03;5011869;28;20342;-59
2022/08/27 10:39:19;;;;;;;12.48;7.50;;;;;;;21.29;50.21;101639.25;5050574;28;20074;-59
2022/08/27 10:42:04;;;;;;;11.07;7.25;;;;;;;21.60;49.94;101623.59;5050497;28;20041;-60
2022/08/27 10:45:00;;;;;;;12.10;7.20;;;;;;;21.98;48.68;101643.81;5032096;28;20237;-59
2022/08/27 10:47:43;;;;;;;14.57;7.90;;;;;;;22.25;48.99;101636.41;5050145;28;20473;-58
2022/08/27 10:50:27;;;;;;;14.30;7.80;;;;;;;22.32;47.83;101647.03;5050546;28;20037;-60
2022/08/27 10:53:00;;;;;;;13.55;7.75;;;;;;;22.12;47.31;101634.88;5050508;28;20066;-60
2022/08/27 10:55:50;;;;;;;14.10;7.70;;;;;;;21.87;48.35;101623.84;5050702;28;20040;-60
2022/08/27 10:58:28;;;;;;;13.95;8.10;;;;;;;21.79;49.43;101627.66;5049536;28;20121;-59
2022/08/27 11:01:24;;;;;;;11.95;7.25;;;;;;;21.85;49.86;101633.84;5050535;28;20056;-60
2022/08/27 11:04:01;;;;;;;15.40;8.32;;;;;;;21.69;48.65;101626.19;5050366;28;20033;-61
2022/08/27 11:06:32;;;;;;;15.40;8.02;;;;;;;21.71;48.40;101629.47;5049841;28;20028;-60
2022/08/27 11:09:20;;;;;;;16.60;7.85;;;;;;;21.97;48.41;101628.91;5048036;28;20111;-59
2022/08/27 11:11:49;;;;;;;12.82;7.45;;;;;;;22.00;48.16;101635.81;5050015;28;20033;-60
2022/08/27 11:14:34;;;;;;;12.23;6.97;;;;;;;21.93;48.04;101625.19;5049829;28;20083;-60
2022/08/27 11:17:10;;;;;;;13.18;7.40;;;;;;;21.83;48.11;101631.38;5049448;28;20029;-59
2022/08/27 11:20:01;;;;;;;13.32;7.47;;;;;;;21.81;48.70;101630.94;5048767;28;20068;-60
2022/08/27 11:22:35;;;;;;;14.93;7.35;;;;;;;21.79;47.94;101625.66;5048143;28;20150;-59
2022/08/27 11:25:20;;;;;;;10.98;6.97;;;;;;;21.98;47.57;101626.91;5048585;28;20049;-60
2022/08/27 11:27:48;;;;;;;15.07;7.50;;;;;;;21.90;46.56;101633.56;5049774;28;20412;-60
2022/08/27 11:30:30;;;;;;;11.05;7.50;;;;;;;21.88;46.79;101624.63;5049986;28;20029;-60